createdAt,value
2019-03-06T00:01:03.760Z,2.50
2019-03-06T00:03:33.087Z,2.50
2019-03-06T00:06:02.356Z,2.60
2019-03-06T00:08:31.574Z,3.47
2019-03-06T00:11:00.898Z,2.80
2019-03-06T00:13:30.218Z,2.60
2019-03-06T00:15:59.624Z,2.50
2019-03-06T00:18:28.932Z,2.63
2019-03-06T00:20:58.186Z,3.73
2019-03-06T00:23:27.397Z,2.80
2019-03-06T00:25:56.932Z,2.50
2019-03-06T00:28:26.183Z,2.30
2019-03-06T00:30:55.471Z,2.83
2019-03-06T00:33:24.742Z,3.20
2019-03-06T00:35:55.602Z,2.50
2019-03-06T00:38:25.027Z,2.90
2019-03-06T00:41:01.624Z,2.70
2019-03-06T00:43:30.921Z,2.90
2019-03-06T00:46:00.171Z,3.13
2019-03-06T00:48:29.683Z,2.70
2019-03-06T00:50:59.098Z,3.47
2019-03-06T00:53:28.343Z,3.03
2019-03-06T00:55:57.607Z,3.13
2019-03-06T00:58:26.864Z,2.90
2019-03-06T01:00:56.544Z,3.27
2019-03-06T01:03:25.848Z,3.60
2019-03-06T01:06:14.490Z,3.20
2019-03-06T01:08:43.800Z,3.37
2019-03-06T01:11:13.039Z,3.53
2019-03-06T01:13:42.373Z,3.37
2019-03-06T01:16:11.611Z,4.93
2019-03-06T01:18:40.845Z,2.90
2019-03-06T01:21:10.220Z,3.60
2019-03-06T01:23:58.774Z,2.93
2019-03-06T01:26:28.167Z,3.57
2019-03-06T01:28:57.395Z,3.60
2019-03-06T01:31:26.610Z,4.10
2019-03-06T01:33:57.526Z,3.90
2019-03-06T01:36:28.406Z,3.43
2019-03-06T01:39:01.747Z,4.03
2019-03-06T01:41:45.230Z,3.90
2019-03-06T01:44:18.858Z,3.40
2019-03-06T01:46:48.098Z,4.37
2019-03-06T01:49:17.362Z,5.07
2019-03-06T01:51:46.688Z,5.10
2019-03-06T01:54:15.933Z,4.83
2019-03-06T01:56:45.283Z,4.40
2019-03-06T01:59:14.562Z,4.90
2019-03-06T02:01:43.863Z,4.70
2019-03-06T02:04:13.104Z,4.90
2019-03-06T02:06:42.403Z,5.83
2019-03-06T02:09:12.207Z,5.40
2019-03-06T02:11:41.448Z,4.70
2019-03-06T02:14:11.135Z,5.73
2019-03-06T02:16:40.387Z,5.67
2019-03-06T02:19:09.789Z,5.80
2019-03-06T02:21:39.016Z,5.93
2019-03-06T02:24:08.427Z,6.20
2019-03-06T02:26:38.055Z,6.20
2019-03-06T02:29:07.310Z,5.80
2019-03-06T02:31:36.778Z,7.23
2019-03-06T02:34:06.050Z,7.80
2019-03-06T02:36:35.268Z,7.27
2019-03-06T02:39:24.138Z,7.50
2019-03-06T02:41:53.368Z,7.60
2019-03-06T02:44:22.593Z,7.63
2019-03-06T02:46:51.972Z,7.53
2019-03-06T02:49:21.247Z,7.83
2019-03-06T02:51:50.547Z,7.90
2019-03-06T02:54:39.218Z,7.37
2019-03-06T02:57:08.478Z,8.83
2019-03-06T02:59:45.275Z,9.00
2019-03-06T03:05:17.454Z,9.60
2019-03-06T03:07:46.843Z,10.03
2019-03-06T03:10:16.310Z,10.17
2019-03-06T03:12:45.593Z,9.37
2019-03-06T03:15:15.270Z,9.87
2019-03-06T03:17:44.506Z,9.43
2019-03-06T03:20:13.977Z,10.43
2019-03-06T03:22:43.223Z,9.77
2019-03-06T03:25:12.524Z,9.00
2019-03-06T03:27:41.783Z,9.60
2019-03-06T03:30:13.802Z,9.60
2019-03-06T03:32:43.238Z,9.37
2019-03-06T03:35:31.895Z,10.10
2019-03-06T03:38:01.134Z,9.93
2019-03-06T03:40:30.370Z,10.40
2019-03-06T03:42:59.695Z,9.63
2019-03-06T03:45:28.951Z,10.03
2019-03-06T03:47:58.222Z,11.10
2019-03-06T03:50:27.695Z,9.37
2019-03-06T03:52:56.929Z,9.70
2019-03-06T03:55:26.237Z,9.30
2019-03-06T03:57:55.482Z,10.60
2019-03-06T04:00:24.854Z,10.63
2019-03-06T04:02:55.544Z,10.70
2019-03-06T04:05:24.808Z,10.47
2019-03-06T04:07:54.147Z,9.73
2019-03-06T04:10:23.373Z,9.57
2019-03-06T04:12:52.625Z,9.10
2019-03-06T04:15:22.306Z,10.27
2019-03-06T04:17:51.556Z,9.90
2019-03-06T04:20:20.771Z,9.87
2019-03-06T04:22:50.039Z,9.23
2019-03-06T04:25:19.295Z,9.70
2019-03-06T04:27:48.789Z,9.57
2019-03-06T04:30:21.226Z,10.20
2019-03-06T04:32:50.468Z,9.77
2019-03-06T04:35:39.054Z,9.50
2019-03-06T04:38:08.359Z,9.00
2019-03-06T04:40:37.624Z,9.90
2019-03-06T04:43:06.903Z,9.63
2019-03-06T04:45:36.141Z,9.80
2019-03-06T04:48:05.532Z,9.40
2019-03-06T04:50:34.794Z,9.67
2019-03-06T04:53:04.034Z,9.30
2019-03-06T04:55:34.758Z,9.80
2019-03-06T04:58:04.084Z,10.00
2019-03-06T05:00:33.442Z,8.93
2019-03-06T05:03:02.677Z,9.70
2019-03-06T05:05:32.022Z,9.93
2019-03-06T05:08:01.402Z,9.60
2019-03-06T05:10:30.635Z,9.43
2019-03-06T05:13:19.213Z,9.90
2019-03-06T05:15:48.475Z,10.10
2019-03-06T05:18:25.046Z,9.90
2019-03-06T05:20:56.599Z,10.00
2019-03-06T05:23:25.829Z,9.80
2019-03-06T05:25:55.119Z,10.00
2019-03-06T05:28:24.450Z,8.60
2019-03-06T05:30:53.683Z,9.00
2019-03-06T05:33:23.339Z,8.37
2019-03-06T05:36:13.902Z,8.47
2019-03-06T05:39:02.116Z,7.40
2019-03-06T05:41:31.355Z,7.87
2019-03-06T05:44:00.597Z,8.73
2019-03-06T05:46:30.423Z,8.13
2019-03-06T05:48:59.662Z,7.57
2019-03-06T05:51:28.922Z,8.50
2019-03-06T05:53:58.154Z,8.67
2019-03-06T05:56:27.575Z,7.70
2019-03-06T05:58:56.847Z,8.63
2019-03-06T06:01:26.083Z,9.17
2019-03-06T06:03:55.350Z,9.03
2019-03-06T06:06:24.567Z,7.97
2019-03-06T06:08:53.798Z,9.00
2019-03-06T06:11:23.078Z,8.87
2019-03-06T06:13:52.325Z,8.53
2019-03-06T06:16:40.911Z,7.93
2019-03-06T06:19:10.139Z,8.83
2019-03-06T06:21:41.043Z,7.93
2019-03-06T06:24:11.102Z,8.80
2019-03-06T06:26:40.376Z,8.47
2019-03-06T06:29:09.620Z,9.17
2019-03-06T06:31:39.883Z,7.83
2019-03-06T06:34:09.212Z,8.13
2019-03-06T06:36:38.470Z,7.90
2019-03-06T06:39:07.711Z,9.00
2019-03-06T06:41:36.963Z,9.43
2019-03-06T06:44:06.220Z,8.23
2019-03-06T06:46:35.448Z,8.40
2019-03-06T06:49:04.776Z,8.37
2019-03-06T06:51:53.806Z,7.90
2019-03-06T06:54:32.183Z,8.43
2019-03-06T06:57:16.510Z,8.87
2019-03-06T07:00:11.692Z,9.57
2019-03-06T07:03:15.232Z,9.80
2019-03-06T07:05:49.631Z,10.17
2019-03-06T07:08:27.487Z,9.20
2019-03-06T07:10:58.478Z,9.63
2019-03-06T07:13:32.034Z,10.17
2019-03-06T07:16:04.406Z,9.37
2019-03-06T07:18:52.615Z,9.30
2019-03-06T07:21:23.494Z,9.30
2019-03-06T07:24:03.426Z,9.00
2019-03-06T07:26:37.294Z,8.63
2019-03-06T07:29:08.274Z,9.97
2019-03-06T07:31:42.611Z,9.43
2019-03-06T07:34:16.563Z,8.90
2019-03-06T07:36:48.023Z,8.50
2019-03-06T07:39:23.395Z,8.23
2019-03-06T07:42:03.648Z,9.80
2019-03-06T07:44:43.435Z,8.70
2019-03-06T07:47:26.415Z,9.27
2019-03-06T07:49:57.294Z,8.87
2019-03-06T07:52:31.223Z,8.27
2019-03-06T07:55:04.892Z,8.10
2019-03-06T07:57:35.832Z,9.33
2019-03-06T08:00:08.144Z,8.10
2019-03-06T08:02:58.691Z,7.80
2019-03-06T08:05:28.004Z,7.07
2019-03-06T08:07:57.303Z,8.37
2019-03-06T08:10:28.289Z,7.10
2019-03-06T08:13:02.131Z,7.00
2019-03-06T08:15:44.614Z,6.70
2019-03-06T08:18:15.529Z,6.83
2019-03-06T08:20:51.975Z,5.90
2019-03-06T08:23:25.923Z,6.40
2019-03-06T08:25:55.305Z,5.27
2019-03-06T08:28:25.619Z,5.53
2019-03-06T08:30:59.603Z,5.40
2019-03-06T08:33:30.307Z,5.67
2019-03-06T08:36:02.495Z,4.60
2019-03-06T08:38:31.755Z,4.80
2019-03-06T08:41:06.016Z,4.20
2019-03-06T08:43:33.167Z,4.30
2019-03-06T08:46:19.211Z,3.87
2019-03-06T08:48:56.027Z,4.70
2019-03-06T08:51:29.859Z,4.03
2019-03-06T08:54:15.529Z,3.40
2019-03-06T08:56:55.296Z,4.20
2019-03-06T08:59:32.334Z,3.47
2019-03-06T09:02:03.316Z,3.50
2019-03-06T09:04:41.934Z,3.10
2019-03-06T09:07:24.854Z,3.17
2019-03-06T09:10:05.132Z,3.10
2019-03-06T09:12:38.881Z,3.37
2019-03-06T09:15:13.154Z,2.90
2019-03-06T09:18:08.847Z,3.23
2019-03-06T09:20:38.193Z,3.77
2019-03-06T09:23:06.025Z,4.63
2019-03-06T09:25:42.832Z,3.20
2019-03-06T09:28:13.869Z,3.63
2019-03-06T09:30:44.840Z,3.20
2019-03-06T09:33:30.728Z,3.27
2019-03-06T09:36:01.799Z,3.00
2019-03-06T09:38:38.584Z,2.90
2019-03-06T09:41:15.537Z,2.67
2019-03-06T09:44:02.610Z,2.97
2019-03-06T09:46:35.990Z,2.57
2019-03-06T09:49:12.520Z,5.00
2019-03-06T09:51:43.442Z,8.80
2019-03-06T09:54:20.242Z,3.40
2019-03-06T09:56:54.150Z,2.80
2019-03-06T09:59:25.165Z,2.80
2019-03-06T10:02:06.816Z,3.57
2019-03-06T10:04:34.490Z,2.70
2019-03-06T10:07:05.545Z,2.70
2019-03-06T10:09:42.087Z,3.20
2019-03-06T10:12:18.815Z,2.73
2019-03-06T10:14:55.910Z,3.40
2019-03-06T10:17:35.920Z,2.70
2019-03-06T10:20:09.915Z,2.87
2019-03-06T10:22:39.295Z,3.13
2019-03-06T10:25:09.294Z,2.60
2019-03-06T10:27:38.636Z,2.73
2019-03-06T10:30:14.015Z,3.07
2019-03-06T10:32:43.636Z,2.67
2019-03-06T10:35:15.516Z,2.73
2019-03-06T10:37:45.092Z,2.40
2019-03-06T10:40:17.246Z,3.00
2019-03-06T10:42:50.450Z,2.73
2019-03-06T10:45:20.997Z,3.43
2019-03-06T10:47:50.538Z,3.00
2019-03-06T10:50:27.371Z,2.30
2019-03-06T10:52:55.999Z,2.90
2019-03-06T10:55:26.398Z,2.63
2019-03-06T10:57:56.394Z,2.87
2019-03-06T11:00:37.574Z,3.40
2019-03-06T11:03:08.138Z,3.20
2019-03-06T11:05:37.461Z,2.70
2019-03-06T11:08:07.206Z,2.37
2019-03-06T11:10:36.885Z,2.83
2019-03-06T11:13:11.362Z,2.70
2019-03-06T11:15:42.303Z,2.57
2019-03-06T11:18:11.821Z,2.00
2019-03-06T11:20:41.843Z,2.70
2019-03-06T11:23:11.832Z,2.40
2019-03-06T11:25:41.658Z,3.20
2019-03-06T11:28:12.936Z,2.67
2019-03-06T11:30:51.031Z,2.10
2019-03-06T11:33:22.619Z,2.80
2019-03-06T11:35:54.684Z,2.33
2019-03-06T11:38:26.298Z,2.20
2019-03-06T11:40:56.372Z,2.50
2019-03-06T11:43:26.060Z,2.60
2019-03-06T11:45:55.423Z,2.47
2019-03-06T11:48:25.438Z,2.50
2019-03-06T11:50:54.919Z,2.70
2019-03-06T11:53:24.395Z,2.50
2019-03-06T11:55:55.145Z,2.43
2019-03-06T11:58:24.540Z,2.70
2019-03-06T12:00:54.191Z,2.20
2019-03-06T12:03:23.812Z,2.20
2019-03-06T12:05:53.309Z,2.30
2019-03-06T12:08:22.719Z,2.93
2019-03-06T12:10:52.788Z,2.37
2019-03-06T12:13:22.180Z,2.40
2019-03-06T12:15:51.870Z,2.50
2019-03-06T12:18:23.847Z,2.70
2019-03-06T12:20:54.215Z,2.50
2019-03-06T12:23:23.614Z,2.40
2019-03-06T12:25:53.056Z,2.27
2019-03-06T12:28:22.666Z,2.07
2019-03-06T12:30:51.954Z,2.20
2019-03-06T12:33:26.348Z,2.23
2019-03-06T12:35:55.912Z,2.60
2019-03-06T12:38:25.515Z,2.03
2019-03-06T12:40:54.898Z,2.13
2019-03-06T12:43:24.242Z,2.53
2019-03-06T12:46:22.843Z,2.10
2019-03-06T12:48:47.874Z,2.43
2019-03-06T12:51:17.201Z,2.17
2019-03-06T12:53:46.895Z,2.03
2019-03-06T12:56:18.042Z,1.90
2019-03-06T12:58:47.254Z,1.87
2019-03-06T13:01:16.597Z,1.80
2019-03-06T13:03:47.379Z,1.73
2019-03-06T13:06:24.061Z,2.10
2019-03-06T13:08:50.561Z,2.23
2019-03-06T13:11:19.305Z,2.33
2019-03-06T13:13:49.087Z,2.07
2019-03-06T13:16:18.463Z,1.67
2019-03-06T13:18:47.834Z,1.93
2019-03-06T13:21:17.584Z,1.57
2019-03-06T13:23:46.973Z,1.70
2019-03-06T13:26:16.312Z,1.90
2019-03-06T13:28:45.634Z,1.70
2019-03-06T13:31:15.099Z,1.83
2019-03-06T13:33:46.150Z,2.27
2019-03-06T13:36:15.466Z,1.97
2019-03-06T13:38:44.822Z,2.70
2019-03-06T13:41:14.274Z,2.80
2019-03-06T13:43:44.498Z,4.47
2019-03-06T13:46:14.065Z,1.70
2019-03-06T13:48:43.442Z,1.53
2019-03-06T13:51:12.768Z,1.80
2019-03-06T13:53:42.264Z,1.90
2019-03-06T13:56:11.731Z,1.83
2019-03-06T13:58:41.006Z,1.70
2019-03-06T14:01:11.686Z,1.80
2019-03-06T14:03:41.327Z,1.63
2019-03-06T14:06:14.143Z,1.70
2019-03-06T14:08:43.525Z,2.00
2019-03-06T14:11:13.024Z,2.00
2019-03-06T14:13:42.429Z,2.07
2019-03-06T14:16:11.865Z,1.90
2019-03-06T14:18:41.240Z,3.90
2019-03-06T14:21:10.663Z,1.80
2019-03-06T14:23:40.099Z,2.00
2019-03-06T14:26:10.872Z,1.67
2019-03-06T14:28:40.239Z,2.40
2019-03-06T14:31:10.679Z,1.90
2019-03-06T14:33:40.635Z,2.00
2019-03-06T14:36:10.274Z,2.10
2019-03-06T14:38:41.323Z,2.03
2019-03-06T14:41:10.810Z,2.10
2019-03-06T14:43:40.227Z,2.13
2019-03-06T14:46:16.281Z,2.00
2019-03-06T14:48:41.194Z,2.03
2019-03-06T14:51:10.541Z,1.80
2019-03-06T14:53:39.848Z,1.63
2019-03-06T14:56:09.180Z,2.10
2019-03-06T14:58:38.608Z,2.10
2019-03-06T15:01:09.263Z,1.83
2019-03-06T15:03:38.596Z,2.17
2019-03-06T15:06:07.915Z,2.10
2019-03-06T15:08:37.215Z,2.10
2019-03-06T15:11:06.577Z,2.57
2019-03-06T15:13:36.418Z,2.17
2019-03-06T15:16:05.799Z,2.50
2019-03-06T15:18:35.240Z,1.90
2019-03-06T15:21:04.828Z,2.00
2019-03-06T15:23:36.444Z,2.10
2019-03-06T15:26:05.609Z,2.20
2019-03-06T15:28:36.229Z,2.13
2019-03-06T15:31:05.585Z,2.20
2019-03-06T15:33:34.940Z,2.27
2019-03-06T15:36:04.837Z,1.93
2019-03-06T15:38:34.360Z,1.97
2019-03-06T15:41:04.033Z,2.40
2019-03-06T15:43:33.435Z,2.33
2019-03-06T15:46:03.039Z,2.27
2019-03-06T15:48:32.359Z,2.30
2019-03-06T15:51:02.038Z,2.47
2019-03-06T15:53:31.291Z,2.13
2019-03-06T15:56:00.769Z,2.33
2019-03-06T15:58:30.257Z,2.57
2019-03-06T16:00:59.669Z,2.00
2019-03-06T16:03:29.398Z,2.43
2019-03-06T16:05:58.759Z,2.10
2019-03-06T16:08:29.007Z,2.10
2019-03-06T16:10:58.316Z,2.03
2019-03-06T16:13:27.924Z,2.30
2019-03-06T16:15:57.843Z,1.90
2019-03-06T16:18:27.183Z,1.80
2019-03-06T16:20:57.555Z,2.20
2019-03-06T16:23:27.044Z,2.40
2019-03-06T16:25:56.538Z,2.17
2019-03-06T16:28:25.897Z,2.60
2019-03-06T16:30:55.351Z,1.83
2019-03-06T16:33:24.669Z,4.07
2019-03-06T16:35:54.050Z,2.50
2019-03-06T16:38:23.535Z,7.80
2019-03-06T16:40:52.997Z,2.97
2019-03-06T16:43:22.425Z,3.70
2019-03-06T16:45:51.785Z,2.70
2019-03-06T16:48:21.100Z,2.60
2019-03-06T16:50:50.664Z,2.10
2019-03-06T16:53:20.154Z,4.47
2019-03-06T16:55:51.052Z,3.03
2019-03-06T16:58:20.513Z,2.13
2019-03-06T17:00:50.998Z,2.83
2019-03-06T17:03:20.700Z,3.40
2019-03-06T17:05:50.184Z,2.50
2019-03-06T17:08:19.739Z,3.37
2019-03-06T17:10:49.121Z,2.70
2019-03-06T17:13:18.552Z,3.07
2019-03-06T17:15:47.954Z,2.93
2019-03-06T17:18:17.456Z,2.63
2019-03-06T17:20:46.875Z,2.60
2019-03-06T17:23:16.284Z,2.93
2019-03-06T17:25:45.944Z,3.10
2019-03-06T17:28:15.439Z,4.93
2019-03-06T17:30:44.874Z,4.13
2019-03-06T17:33:16.076Z,4.37
2019-03-06T17:35:45.647Z,2.63
2019-03-06T17:38:16.867Z,2.30
2019-03-06T17:40:46.341Z,2.30
2019-03-06T17:43:15.833Z,2.67
2019-03-06T17:45:45.559Z,2.63
2019-03-06T17:48:15.043Z,2.53
2019-03-06T17:50:47.350Z,2.70
2019-03-06T17:53:16.679Z,2.83
2019-03-06T17:55:45.999Z,2.20
2019-03-06T17:58:15.343Z,2.80
2019-03-06T18:00:46.376Z,2.20
2019-03-06T18:06:16.795Z,2.70
2019-03-06T18:08:46.161Z,2.97
2019-03-06T18:11:15.555Z,2.37
2019-03-06T18:13:45.036Z,3.20
2019-03-06T18:16:14.435Z,3.07
2019-03-06T18:18:43.790Z,2.70
2019-03-06T18:21:13.502Z,2.20
2019-03-06T18:23:42.802Z,2.87
2019-03-06T18:26:12.142Z,2.67
2019-03-06T18:28:41.475Z,3.37
2019-03-06T18:31:10.871Z,2.60
2019-03-06T18:33:40.185Z,3.10
2019-03-06T18:36:09.730Z,3.53
2019-03-06T18:38:39.124Z,3.70
2019-03-06T18:41:27.731Z,2.87
2019-03-06T18:43:57.248Z,3.17
2019-03-06T18:46:26.987Z,2.90
2019-03-06T18:48:56.333Z,2.60
2019-03-06T18:51:25.677Z,3.10
2019-03-06T18:53:55.100Z,3.13
2019-03-06T18:56:24.608Z,2.63
2019-03-06T18:58:53.975Z,3.40
2019-03-06T19:01:23.498Z,3.50
2019-03-06T19:03:52.999Z,3.00
2019-03-06T19:06:23.965Z,2.90
2019-03-06T19:08:53.270Z,3.90
2019-03-06T19:11:22.653Z,3.10
2019-03-06T19:13:51.999Z,3.23
2019-03-06T19:16:21.667Z,3.20
2019-03-06T19:18:50.954Z,3.60
2019-03-06T19:21:22.878Z,4.43
2019-03-06T19:23:51.400Z,3.67
2019-03-06T19:26:20.824Z,3.40
2019-03-06T19:28:50.316Z,3.70
2019-03-06T19:31:19.658Z,4.20
2019-03-06T19:33:49.092Z,3.30
2019-03-06T19:36:18.608Z,2.83
2019-03-06T19:38:47.995Z,3.33
2019-03-06T19:41:17.419Z,3.57
2019-03-06T19:43:46.758Z,3.63
2019-03-06T19:46:17.203Z,4.00
2019-03-06T19:48:46.539Z,3.73
2019-03-06T19:51:15.967Z,3.83
2019-03-06T19:53:45.391Z,3.60
2019-03-06T19:56:34.164Z,4.37
2019-03-06T19:59:03.587Z,3.70
2019-03-06T20:01:33.049Z,3.83
2019-03-06T20:04:02.405Z,2.83
2019-03-06T20:06:31.748Z,3.97
2019-03-06T20:09:01.195Z,3.80
2019-03-06T20:11:32.143Z,3.83
2019-03-06T20:14:01.522Z,2.43
2019-03-06T20:16:30.946Z,3.60
2019-03-06T20:19:02.264Z,4.60
2019-03-06T20:21:31.448Z,3.77
2019-03-06T20:24:00.820Z,3.60
2019-03-06T20:26:30.420Z,3.70
2019-03-06T20:28:59.748Z,3.73
2019-03-06T20:31:29.208Z,3.90
2019-03-06T20:33:58.668Z,4.47
2019-03-06T20:36:28.176Z,4.13
2019-03-06T20:38:57.574Z,4.20
2019-03-06T20:41:27.177Z,4.10
2019-03-06T20:43:56.589Z,3.80
2019-03-06T20:46:26.049Z,3.90
2019-03-06T20:48:55.456Z,4.00
2019-03-06T20:51:24.796Z,2.90
2019-03-06T20:53:54.111Z,3.83
2019-03-06T20:56:23.805Z,3.70
2019-03-06T20:58:53.140Z,4.47
2019-03-06T21:01:22.546Z,4.60
2019-03-06T21:04:11.200Z,4.20
2019-03-06T21:06:40.766Z,4.30
2019-03-06T21:09:10.582Z,4.20
2019-03-06T21:11:39.910Z,4.10
2019-03-06T21:14:09.236Z,4.17
2019-03-06T21:16:57.975Z,4.07
2019-03-06T21:19:27.324Z,4.67
2019-03-06T21:21:56.734Z,4.83
2019-03-06T21:24:26.374Z,5.07
2019-03-06T21:26:55.717Z,4.57
2019-03-06T21:29:25.042Z,3.77
2019-03-06T21:31:54.372Z,5.03
2019-03-06T21:34:23.683Z,4.97
2019-03-06T21:36:53.035Z,4.40
2019-03-06T21:39:23.827Z,4.70
2019-03-06T21:41:53.265Z,5.00
2019-03-06T21:44:22.646Z,5.27
2019-03-06T21:46:51.964Z,5.00
2019-03-06T21:49:21.309Z,4.27
2019-03-06T21:51:50.713Z,4.07
2019-03-06T21:54:20.361Z,5.27
2019-03-06T21:56:49.747Z,4.90
2019-03-06T21:59:19.150Z,5.43
2019-03-06T22:01:48.561Z,4.13
2019-03-06T22:04:17.920Z,5.17
2019-03-06T22:06:47.308Z,4.67
2019-03-06T22:09:17.715Z,4.70
2019-03-06T22:11:47.083Z,4.50
2019-03-06T22:14:16.381Z,5.40
2019-03-06T22:16:45.680Z,4.60
2019-03-06T22:19:14.927Z,4.97
2019-03-06T22:21:44.321Z,3.73
2019-03-06T22:24:13.733Z,4.27
2019-03-06T22:26:43.090Z,4.90
2019-03-06T22:29:12.802Z,3.50
2019-03-06T22:31:42.174Z,3.90
2019-03-06T22:34:13.191Z,4.20
2019-03-06T22:36:42.597Z,3.70
2019-03-06T22:39:12.496Z,4.17
2019-03-06T22:41:41.842Z,4.40
2019-03-06T22:44:11.102Z,4.27
2019-03-06T22:46:40.422Z,4.43
2019-03-06T22:49:09.814Z,4.47
2019-03-06T22:51:39.204Z,4.70
2019-03-06T22:54:08.581Z,4.53
2019-03-06T22:56:37.845Z,4.33
2019-03-06T22:59:07.170Z,4.37
2019-03-06T23:01:36.786Z,4.23
2019-03-06T23:04:06.505Z,4.23
2019-03-06T23:06:55.430Z,4.40
2019-03-06T23:09:24.855Z,3.90
2019-03-06T23:11:54.262Z,3.80
2019-03-06T23:14:23.502Z,4.00
2019-03-06T23:17:12.275Z,4.60
2019-03-06T23:19:41.553Z,3.50
2019-03-06T23:22:10.937Z,3.80
2019-03-06T23:24:40.261Z,4.63
2019-03-06T23:27:09.568Z,4.00
2019-03-06T23:29:38.892Z,3.80
2019-03-06T23:32:08.142Z,3.93
2019-03-06T23:34:37.405Z,4.87
2019-03-06T23:37:06.799Z,4.40
2019-03-06T23:39:36.045Z,3.73
2019-03-06T23:42:05.714Z,3.90
2019-03-06T23:44:34.964Z,4.03
2019-03-06T23:47:04.464Z,3.80
2019-03-06T23:49:33.788Z,3.83
2019-03-06T23:52:04.907Z,4.17
2019-03-06T23:54:34.419Z,3.80
2019-03-06T23:57:03.695Z,4.10
2019-03-06T23:59:32.921Z,3.30
